createdAt,value
2023-03-18T00:01:11.457Z,19.90
2023-03-18T00:03:40.914Z,19.80
2023-03-18T00:06:12.981Z,20.30
2023-03-18T00:08:42.597Z,20.10
2023-03-18T00:11:12.852Z,20.20
2023-03-18T00:13:42.456Z,19.70
2023-03-18T00:16:12.649Z,19.70
2023-03-18T00:18:42.535Z,19.80
2023-03-18T00:21:12.093Z,20.00
2023-03-18T00:23:41.236Z,19.80
2023-03-18T00:26:09.788Z,19.80
2023-03-18T00:28:38.904Z,19.80
2023-03-18T00:31:09.745Z,19.60
2023-03-18T00:33:39.923Z,19.80
2023-03-18T00:36:13.614Z,19.50
2023-03-18T00:38:42.199Z,19.80
2023-03-18T00:41:12.567Z,20.10
2023-03-18T00:43:47.209Z,19.60
2023-03-18T00:46:19.691Z,19.70
2023-03-18T00:48:48.325Z,19.70
2023-03-18T00:51:18.677Z,19.60
2023-03-18T00:53:49.601Z,19.70
2023-03-18T00:56:19.376Z,19.50
2023-03-18T00:58:48.420Z,19.90
2023-03-18T01:01:17.704Z,19.80
2023-03-18T01:03:47.538Z,20.10
2023-03-18T01:06:21.023Z,20.00
2023-03-18T01:08:49.687Z,19.70
2023-03-18T01:11:18.168Z,19.80
2023-03-18T01:13:47.477Z,19.90
2023-03-18T01:16:16.266Z,19.80
2023-03-18T01:18:44.585Z,19.70
2023-03-18T01:21:14.034Z,19.70
2023-03-18T01:23:43.471Z,19.80
2023-03-18T01:26:11.605Z,19.60
2023-03-18T01:28:39.635Z,19.70
2023-03-18T01:31:08.049Z,19.80
2023-03-18T01:33:36.624Z,19.90
2023-03-18T01:36:05.662Z,19.70
2023-03-18T01:38:34.003Z,20.00
2023-03-18T01:41:03.705Z,19.60
2023-03-18T01:43:34.729Z,19.70
2023-03-18T01:46:34.785Z,19.70
2023-03-18T01:49:07.426Z,19.80
2023-03-18T01:51:35.937Z,19.80
2023-03-18T01:54:07.383Z,19.80
2023-03-18T01:56:40.451Z,19.80
2023-03-18T01:59:10.515Z,19.60
2023-03-18T02:01:45.033Z,19.60
2023-03-18T02:06:42.241Z,19.80
2023-03-18T02:09:11.334Z,19.90
2023-03-18T02:11:44.288Z,19.70
2023-03-18T02:14:15.421Z,19.70
2023-03-18T02:16:48.822Z,19.80
2023-03-18T02:19:34.650Z,19.60
2023-03-18T02:22:19.524Z,19.90
2023-03-18T02:24:56.636Z,19.80
2023-03-18T02:27:28.294Z,19.60
2023-03-18T02:29:59.309Z,19.90
2023-03-18T02:32:29.136Z,19.90
2023-03-18T02:34:59.522Z,19.70
2023-03-18T02:37:27.730Z,19.80
2023-03-18T02:39:55.697Z,19.80
2023-03-18T02:42:32.471Z,19.90
2023-03-18T02:45:01.144Z,19.80
2023-03-18T02:47:31.673Z,19.80
2023-03-18T02:49:59.669Z,19.80
2023-03-18T02:52:27.668Z,20.00
2023-03-18T02:54:59.094Z,19.70
2023-03-18T02:57:27.064Z,19.70
2023-03-18T02:59:56.469Z,20.10
2023-03-18T03:02:24.644Z,19.70
2023-03-18T03:04:52.695Z,19.90
2023-03-18T03:07:20.651Z,20.00
2023-03-18T03:09:48.698Z,19.60
2023-03-18T03:12:16.728Z,19.80
2023-03-18T03:14:44.738Z,19.70
2023-03-18T03:17:14.211Z,19.70
2023-03-18T03:19:42.228Z,19.60
2023-03-18T03:22:10.488Z,19.70
2023-03-18T03:24:38.457Z,20.00
2023-03-18T03:27:06.911Z,19.70
2023-03-18T03:29:34.859Z,19.80
2023-03-18T03:32:03.086Z,19.70
2023-03-18T03:34:33.682Z,19.80
2023-03-18T03:37:01.814Z,19.80
2023-03-18T03:39:29.768Z,19.80
2023-03-18T03:41:57.706Z,20.00
2023-03-18T03:44:25.915Z,19.80
2023-03-18T03:46:54.115Z,19.90
2023-03-18T03:49:22.325Z,20.00
2023-03-18T03:51:52.010Z,19.80
2023-03-18T03:54:20.807Z,19.90
2023-03-18T03:56:48.735Z,19.80
2023-03-18T03:59:16.684Z,19.90
2023-03-18T04:01:44.765Z,19.80
2023-03-18T04:04:13.248Z,20.10
2023-03-18T04:06:41.303Z,19.90
2023-03-18T04:09:10.937Z,19.40
2023-03-18T04:11:38.902Z,20.20
2023-03-18T04:14:06.894Z,19.80
2023-03-18T04:16:35.130Z,20.00
2023-03-18T04:19:03.241Z,19.80
2023-03-18T04:21:31.498Z,19.70
2023-03-18T04:23:59.429Z,19.70
2023-03-18T04:26:29.067Z,20.00
2023-03-18T04:28:57.108Z,19.60
2023-03-18T04:31:25.578Z,19.70
2023-03-18T04:33:53.740Z,19.40
2023-03-18T04:36:21.696Z,19.70
2023-03-18T04:38:49.712Z,19.50
2023-03-18T04:41:18.256Z,19.80
2023-03-18T04:43:47.686Z,19.80
2023-03-18T04:46:15.916Z,19.70
2023-03-18T04:48:44.578Z,19.60
2023-03-18T04:51:12.625Z,19.70
2023-03-18T04:53:40.889Z,19.80
2023-03-18T04:56:09.675Z,19.60
2023-03-18T04:58:37.699Z,19.60
2023-03-18T05:01:07.161Z,19.60
2023-03-18T05:03:35.194Z,19.60
2023-03-18T05:06:03.367Z,19.90
2023-03-18T05:08:31.794Z,19.60
2023-03-18T05:10:59.757Z,19.80
2023-03-18T05:13:28.392Z,19.90
2023-03-18T05:15:56.345Z,19.70
2023-03-18T05:18:26.147Z,19.90
2023-03-18T05:20:55.041Z,19.90
2023-03-18T05:23:23.959Z,19.80
2023-03-18T05:25:52.229Z,19.60
2023-03-18T05:28:20.232Z,19.70
2023-03-18T05:30:48.296Z,19.80
2023-03-18T05:33:16.903Z,19.70
2023-03-18T05:35:46.296Z,19.70
2023-03-18T05:38:14.705Z,19.70
2023-03-18T05:40:43.386Z,19.50
2023-03-18T05:43:11.974Z,19.60
2023-03-18T05:45:40.894Z,19.60
2023-03-18T05:48:10.527Z,19.90
2023-03-18T05:50:41.767Z,19.70
2023-03-18T05:53:11.960Z,19.70
2023-03-18T05:55:41.022Z,19.90
2023-03-18T05:58:09.421Z,20.00
2023-03-18T06:00:38.495Z,20.00
2023-03-18T06:03:06.635Z,19.90
2023-03-18T06:05:35.180Z,19.80
2023-03-18T06:08:03.409Z,20.10
2023-03-18T06:10:33.398Z,19.80
2023-03-18T06:13:01.585Z,20.10
2023-03-18T06:15:30.475Z,20.10
2023-03-18T06:17:58.821Z,19.80
2023-03-18T06:20:26.887Z,19.90
2023-03-18T06:22:54.853Z,19.70
2023-03-18T06:25:23.905Z,19.80
2023-03-18T06:27:53.348Z,19.80
2023-03-18T06:30:22.021Z,19.70
2023-03-18T06:32:50.164Z,19.60
2023-03-18T06:35:18.812Z,20.00
2023-03-18T06:37:46.879Z,19.60
2023-03-18T06:40:15.622Z,20.00
2023-03-18T06:42:44.506Z,19.70
2023-03-18T06:45:15.173Z,19.90
2023-03-18T06:47:43.144Z,20.00
2023-03-18T06:50:13.444Z,20.10
2023-03-18T06:52:41.474Z,20.10
2023-03-18T06:55:10.770Z,20.10
2023-03-18T06:57:38.946Z,20.00
2023-03-18T07:00:09.023Z,20.10
2023-03-18T07:02:39.746Z,20.00
2023-03-18T07:05:09.479Z,19.90
2023-03-18T07:07:38.602Z,20.00
2023-03-18T07:10:09.234Z,19.90
2023-03-18T07:12:37.188Z,19.90
2023-03-18T07:15:06.173Z,20.00
2023-03-18T07:17:34.223Z,19.80
2023-03-18T07:20:05.348Z,20.10
2023-03-18T07:22:33.380Z,19.90
2023-03-18T07:25:01.356Z,20.10
2023-03-18T07:27:29.751Z,20.40
2023-03-18T07:29:58.021Z,20.20
2023-03-18T07:32:26.076Z,20.20
2023-03-18T07:34:54.056Z,20.20
2023-03-18T07:37:23.445Z,20.20
2023-03-18T07:39:52.875Z,20.30
2023-03-18T07:42:20.858Z,20.50
2023-03-18T07:44:48.994Z,20.30
2023-03-18T07:47:17.030Z,20.50
2023-03-18T07:49:45.102Z,20.30
2023-03-18T07:52:13.237Z,20.30
2023-03-18T07:54:42.554Z,20.40
2023-03-18T07:57:11.449Z,20.40
2023-03-18T07:59:39.494Z,20.40
2023-03-18T08:02:08.882Z,20.70
2023-03-18T08:04:37.564Z,20.50
2023-03-18T08:07:05.976Z,20.50
2023-03-18T08:09:34.157Z,20.20
2023-03-18T08:12:03.697Z,20.30
2023-03-18T08:14:31.921Z,20.30
2023-03-18T08:16:59.937Z,20.20
2023-03-18T08:19:28.169Z,20.20
2023-03-18T08:21:57.490Z,20.10
2023-03-18T08:24:25.581Z,20.10
2023-03-18T08:26:53.550Z,20.20
2023-03-18T08:29:23.474Z,20.20
2023-03-18T08:31:52.091Z,20.50
2023-03-18T08:34:20.126Z,20.30
2023-03-18T08:36:48.994Z,20.50
2023-03-18T08:39:17.527Z,20.40
2023-03-18T08:41:45.934Z,20.40
2023-03-18T08:44:14.026Z,20.40
2023-03-18T08:46:43.476Z,20.40
2023-03-18T08:49:12.234Z,20.60
2023-03-18T08:51:40.253Z,20.50
2023-03-18T08:54:09.101Z,20.20
2023-03-18T08:56:38.140Z,20.30
2023-03-18T08:59:06.993Z,20.80
2023-03-18T09:01:35.061Z,20.40
2023-03-18T09:04:04.684Z,20.30
2023-03-18T09:06:32.825Z,20.30
2023-03-18T09:09:00.898Z,20.70
2023-03-18T09:11:29.043Z,20.50
2023-03-18T09:13:57.178Z,20.50
2023-03-18T09:16:25.374Z,20.80
2023-03-18T09:18:53.591Z,20.70
2023-03-18T09:21:23.200Z,20.70
2023-03-18T09:23:52.652Z,20.70
2023-03-18T09:26:20.755Z,20.50
2023-03-18T09:28:48.768Z,20.80
2023-03-18T09:31:16.925Z,20.90
2023-03-18T09:33:44.948Z,20.60
2023-03-18T09:36:13.812Z,20.50
2023-03-18T09:38:43.771Z,20.80
2023-03-18T09:41:29.724Z,20.90
2023-03-18T09:44:09.320Z,21.20
2023-03-18T09:46:54.193Z,20.60
2023-03-18T09:49:38.936Z,21.20
2023-03-18T09:52:20.040Z,21.10
2023-03-18T09:54:58.723Z,20.80
2023-03-18T09:57:30.049Z,20.90
2023-03-18T10:00:08.941Z,21.30
2023-03-18T10:02:42.076Z,21.30
2023-03-18T10:05:16.742Z,20.90
2023-03-18T10:07:47.238Z,21.30
2023-03-18T10:10:25.678Z,21.20
2023-03-18T10:13:02.523Z,21.40
2023-03-18T10:15:36.196Z,21.30
2023-03-18T10:18:13.654Z,21.60
2023-03-18T10:20:58.981Z,21.30
2023-03-18T10:23:46.206Z,21.50
2023-03-18T10:26:21.903Z,21.50
2023-03-18T10:29:30.329Z,21.40
2023-03-18T10:32:10.164Z,21.60
2023-03-18T10:34:51.090Z,21.80
2023-03-18T10:37:35.736Z,21.40
2023-03-18T10:40:12.854Z,21.70
2023-03-18T10:42:42.626Z,21.60
2023-03-18T10:45:23.373Z,21.60
2023-03-18T10:47:59.556Z,21.70
2023-03-18T10:50:34.759Z,21.60
2023-03-18T10:53:14.528Z,21.60
2023-03-18T10:55:57.299Z,21.90
2023-03-18T10:58:29.055Z,21.70
2023-03-18T11:00:57.555Z,21.70
2023-03-18T11:03:29.296Z,22.00
2023-03-18T11:06:01.936Z,21.70
2023-03-18T11:08:37.221Z,21.90
2023-03-18T11:11:29.362Z,21.90
2023-03-18T11:13:59.822Z,22.30
2023-03-18T11:16:35.277Z,22.00
2023-03-18T11:19:23.565Z,21.90
2023-03-18T11:22:04.308Z,21.90
2023-03-18T11:24:38.999Z,21.80
2023-03-18T11:27:26.931Z,21.70
2023-03-18T11:30:03.013Z,21.70
2023-03-18T11:32:33.948Z,22.00
2023-03-18T11:35:04.163Z,21.60
2023-03-18T11:37:34.817Z,21.70
2023-03-18T11:40:20.884Z,21.70
2023-03-18T11:42:55.961Z,22.00
2023-03-18T11:45:35.862Z,21.90
2023-03-18T11:48:04.651Z,21.90
2023-03-18T11:50:46.828Z,22.00
2023-03-18T11:53:21.905Z,22.00
2023-03-18T11:55:53.795Z,21.50
2023-03-18T11:59:09.062Z,21.50
2023-03-18T12:01:50.683Z,21.60
2023-03-18T12:04:45.967Z,21.70
2023-03-18T12:07:38.363Z,21.70
2023-03-18T12:10:20.025Z,21.80
2023-03-18T12:13:05.165Z,21.80
2023-03-18T12:15:47.097Z,21.70
2023-03-18T12:18:35.685Z,21.70
2023-03-18T12:21:21.660Z,22.20
2023-03-18T12:24:10.227Z,21.80
2023-03-18T12:26:49.557Z,22.10
2023-03-18T12:29:43.156Z,21.90
2023-03-18T12:32:26.013Z,22.20
2023-03-18T12:35:21.707Z,22.30
2023-03-18T12:38:13.931Z,21.90
2023-03-18T12:40:51.702Z,22.50
2023-03-18T12:43:37.439Z,22.40
2023-03-18T12:46:19.077Z,22.60
2023-03-18T12:48:55.695Z,22.60
2023-03-18T12:51:32.038Z,21.90
2023-03-18T12:54:11.798Z,21.90
2023-03-18T12:56:45.200Z,22.00
2023-03-18T12:59:20.345Z,22.10
2023-03-18T13:02:00.767Z,22.20
2023-03-18T13:04:33.010Z,22.10
2023-03-18T13:07:08.122Z,22.20
2023-03-18T13:09:40.620Z,21.80
2023-03-18T13:12:13.285Z,22.00
2023-03-18T13:14:56.301Z,21.70
2023-03-18T13:17:30.486Z,21.90
2023-03-18T13:20:01.323Z,22.00
2023-03-18T13:22:57.302Z,21.80
2023-03-18T13:25:37.189Z,22.00
2023-03-18T13:28:30.181Z,21.70
2023-03-18T13:31:11.242Z,22.20
2023-03-18T13:34:27.737Z,21.80
2023-03-18T13:37:22.662Z,21.90
2023-03-18T13:40:19.891Z,21.60
2023-03-18T13:42:49.983Z,21.70
2023-03-18T13:45:28.399Z,21.60
2023-03-18T13:47:59.130Z,21.70
2023-03-18T13:50:34.906Z,22.10
2023-03-18T13:53:05.563Z,21.80
2023-03-18T13:55:45.042Z,21.90
2023-03-18T13:58:25.854Z,21.80
2023-03-18T14:01:32.854Z,21.70
2023-03-18T14:04:45.850Z,22.10
2023-03-18T14:07:18.419Z,21.70
2023-03-18T14:09:54.827Z,22.10
2023-03-18T14:12:41.309Z,21.80
2023-03-18T14:15:38.587Z,22.00
2023-03-18T14:18:27.609Z,21.70
2023-03-18T14:21:02.505Z,21.70
2023-03-18T14:23:43.485Z,21.50
2023-03-18T14:26:23.430Z,21.70
2023-03-18T14:28:57.617Z,21.30
2023-03-18T14:31:34.949Z,21.50
2023-03-18T14:34:34.115Z,21.60
2023-03-18T14:37:27.640Z,21.30
2023-03-18T14:40:01.971Z,21.40
2023-03-18T14:42:38.921Z,21.30
2023-03-18T14:45:20.617Z,21.40
2023-03-18T14:47:52.377Z,21.70
2023-03-18T14:50:30.860Z,21.50
2023-03-18T14:53:07.133Z,21.60
2023-03-18T14:55:37.097Z,21.50
2023-03-18T14:58:05.592Z,21.70
2023-03-18T15:00:37.516Z,21.80
2023-03-18T15:03:09.318Z,21.50
2023-03-18T15:05:40.930Z,21.70
2023-03-18T15:08:19.133Z,21.70
2023-03-18T15:10:48.843Z,21.90
2023-03-18T15:13:20.342Z,21.60
2023-03-18T15:15:54.665Z,21.70
2023-03-18T15:18:29.334Z,21.70
2023-03-18T15:21:02.553Z,21.90
2023-03-18T15:23:37.099Z,22.00
2023-03-18T15:26:09.762Z,21.80
2023-03-18T15:28:38.535Z,21.70
2023-03-18T15:31:07.907Z,21.70
2023-03-18T15:33:39.785Z,22.00
2023-03-18T15:36:16.390Z,22.00
2023-03-18T15:38:48.807Z,21.90
2023-03-18T15:41:17.882Z,21.60
2023-03-18T15:43:48.233Z,21.70
2023-03-18T15:46:20.899Z,22.00
2023-03-18T15:48:55.103Z,21.90
2023-03-18T15:51:29.980Z,22.20
2023-03-18T15:54:03.475Z,21.90
2023-03-18T15:56:33.767Z,21.50
2023-03-18T15:59:12.165Z,22.10
2023-03-18T16:01:41.613Z,21.80
2023-03-18T16:04:14.510Z,21.60
2023-03-18T16:06:43.044Z,21.50
2023-03-18T16:09:18.083Z,21.70
2023-03-18T16:11:49.037Z,21.90
2023-03-18T16:14:19.202Z,21.70
2023-03-18T16:16:48.855Z,22.00
2023-03-18T16:19:24.736Z,21.60
2023-03-18T16:21:52.935Z,21.60
2023-03-18T16:24:21.112Z,21.70
2023-03-18T16:26:49.470Z,21.80
2023-03-18T16:29:20.045Z,21.40
2023-03-18T16:31:49.508Z,21.60
2023-03-18T16:34:21.748Z,21.60
2023-03-18T16:36:51.934Z,21.60
2023-03-18T16:39:24.155Z,21.70
2023-03-18T16:41:53.555Z,21.40
2023-03-18T16:44:23.560Z,21.50
2023-03-18T16:46:55.611Z,21.70
2023-03-18T16:49:30.837Z,21.90
2023-03-18T16:51:58.929Z,21.50
2023-03-18T16:54:28.794Z,21.70
2023-03-18T16:56:59.912Z,21.50
2023-03-18T16:59:32.554Z,21.60
2023-03-18T17:02:04.170Z,21.40
2023-03-18T17:04:34.692Z,21.40
2023-03-18T17:07:05.161Z,21.50
2023-03-18T17:09:33.373Z,21.40
2023-03-18T17:12:05.762Z,21.60
2023-03-18T17:14:38.653Z,21.50
2023-03-18T17:17:17.691Z,21.30
2023-03-18T17:19:45.672Z,21.50
2023-03-18T17:22:22.322Z,21.60
2023-03-18T17:24:50.717Z,21.60
2023-03-18T17:27:22.119Z,21.40
2023-03-18T17:29:50.610Z,21.40
2023-03-18T17:32:22.015Z,21.70
2023-03-18T17:34:52.477Z,21.60
2023-03-18T17:37:21.562Z,21.40
2023-03-18T17:39:49.570Z,21.50
2023-03-18T17:42:30.352Z,21.40
2023-03-18T17:45:04.840Z,21.50
2023-03-18T17:47:34.291Z,21.40
2023-03-18T17:50:04.777Z,21.50
2023-03-18T17:52:33.974Z,21.50
2023-03-18T17:55:02.102Z,21.20
2023-03-18T17:57:30.177Z,21.40
2023-03-18T17:59:58.413Z,21.50
2023-03-18T18:02:26.494Z,21.40
2023-03-18T18:04:55.888Z,21.30
2023-03-18T18:07:23.881Z,21.10
2023-03-18T18:09:52.721Z,21.20
2023-03-18T18:12:24.990Z,21.10
2023-03-18T18:14:53.235Z,21.20
2023-03-18T18:17:21.865Z,21.00
2023-03-18T18:19:50.004Z,21.00
2023-03-18T18:22:22.669Z,21.10
2023-03-18T18:24:52.218Z,21.10
2023-03-18T18:27:20.328Z,21.30
2023-03-18T18:29:48.342Z,21.30
2023-03-18T18:32:16.427Z,21.20
2023-03-18T18:34:45.010Z,21.00
2023-03-18T18:37:13.350Z,21.00
2023-03-18T18:39:43.578Z,21.30
2023-03-18T18:42:12.275Z,20.90
2023-03-18T18:44:40.306Z,21.20
2023-03-18T18:47:19.168Z,21.20
2023-03-18T18:49:47.743Z,21.00
2023-03-18T18:52:15.825Z,21.20
2023-03-18T18:54:45.304Z,21.20
2023-03-18T18:57:26.633Z,21.30
2023-03-18T18:59:54.885Z,20.80
2023-03-18T19:02:31.355Z,20.80
2023-03-18T19:04:59.995Z,21.10
2023-03-18T19:07:29.189Z,21.10
2023-03-18T19:09:59.110Z,20.90
2023-03-18T19:12:27.475Z,21.20
2023-03-18T19:14:55.843Z,20.50
2023-03-18T19:17:24.270Z,21.00
2023-03-18T19:19:53.692Z,20.80
2023-03-18T19:22:22.537Z,21.10
2023-03-18T19:24:50.719Z,21.10
2023-03-18T19:27:24.403Z,21.20
2023-03-18T19:29:54.794Z,21.20
2023-03-18T19:32:24.505Z,21.30
2023-03-18T19:34:54.571Z,21.40
2023-03-18T19:37:28.634Z,21.30
2023-03-18T19:39:57.039Z,21.30
2023-03-18T19:42:27.081Z,21.30
2023-03-18T19:44:55.893Z,21.20
2023-03-18T19:47:26.392Z,21.00
2023-03-18T19:49:55.036Z,21.30
2023-03-18T19:52:26.336Z,21.30
2023-03-18T19:54:55.600Z,21.10
2023-03-18T19:57:28.241Z,21.30
2023-03-18T19:59:59.611Z,21.30
2023-03-18T20:02:31.223Z,21.20
2023-03-18T20:05:02.432Z,21.20
2023-03-18T20:07:33.234Z,21.40
2023-03-18T20:10:01.367Z,21.20
2023-03-18T20:12:35.369Z,21.00
2023-03-18T20:15:04.440Z,21.10
2023-03-18T20:17:38.428Z,21.20
2023-03-18T20:20:08.722Z,21.30
2023-03-18T20:22:40.099Z,21.20
2023-03-18T20:25:17.789Z,21.30
2023-03-18T20:27:47.334Z,20.70
2023-03-18T20:30:25.208Z,21.10
2023-03-18T20:32:53.298Z,21.20
2023-03-18T20:35:21.786Z,21.10
2023-03-18T20:37:50.216Z,20.90
2023-03-18T20:40:24.369Z,21.10
2023-03-18T20:42:53.845Z,21.00
2023-03-18T20:45:23.600Z,21.00
2023-03-18T20:47:52.687Z,21.10
2023-03-18T20:50:23.768Z,21.10
2023-03-18T20:52:52.713Z,20.90
2023-03-18T20:55:25.168Z,21.10
2023-03-18T20:57:55.272Z,20.90
2023-03-18T21:00:26.847Z,21.00
2023-03-18T21:02:58.418Z,20.70
2023-03-18T21:05:27.491Z,21.20
2023-03-18T21:07:55.816Z,21.10
2023-03-18T21:10:25.804Z,20.90
2023-03-18T21:12:55.536Z,20.90
2023-03-18T21:15:26.422Z,20.80
2023-03-18T21:17:54.967Z,20.90
2023-03-18T21:20:28.169Z,21.00
2023-03-18T21:22:56.945Z,20.80
2023-03-18T21:25:27.552Z,20.90
2023-03-18T21:27:57.651Z,20.90
2023-03-18T21:30:25.706Z,21.10
2023-03-18T21:32:53.721Z,21.20
2023-03-18T21:35:24.788Z,21.20
2023-03-18T21:37:53.716Z,21.00
2023-03-18T21:40:24.720Z,20.90
2023-03-18T21:42:53.567Z,20.60
2023-03-18T21:45:24.325Z,20.60
2023-03-18T21:47:53.034Z,20.90
2023-03-18T21:50:24.161Z,20.80
2023-03-18T21:52:53.459Z,20.50
2023-03-18T21:55:21.962Z,20.60
2023-03-18T21:57:49.954Z,20.50
2023-03-18T22:00:22.325Z,20.60
2023-03-18T22:02:50.971Z,21.20
2023-03-18T22:05:21.681Z,21.00
2023-03-18T22:07:50.843Z,21.00
2023-03-18T22:10:22.281Z,20.50
2023-03-18T22:12:50.597Z,21.10
2023-03-18T22:15:41.174Z,20.90
2023-03-18T22:18:09.282Z,20.70
2023-03-18T22:20:38.915Z,20.40
2023-03-18T22:23:17.141Z,20.50
2023-03-18T22:25:47.257Z,20.50
2023-03-18T22:28:15.753Z,20.90
2023-03-18T22:30:51.861Z,20.70
2023-03-18T22:33:23.660Z,20.90
2023-03-18T22:35:51.843Z,20.60
2023-03-18T22:38:21.959Z,21.10
2023-03-18T22:40:53.018Z,20.70
2023-03-18T22:43:33.384Z,20.90
2023-03-18T22:46:06.186Z,20.70
2023-03-18T22:48:34.772Z,21.00
2023-03-18T22:51:03.726Z,21.00
2023-03-18T22:53:35.641Z,20.60
2023-03-18T22:56:09.961Z,20.60
2023-03-18T22:58:39.187Z,20.50
2023-03-18T23:01:08.858Z,20.70
2023-03-18T23:03:40.337Z,21.00
2023-03-18T23:06:09.251Z,20.80
2023-03-18T23:08:37.355Z,20.90
2023-03-18T23:11:05.739Z,21.00
2023-03-18T23:13:37.929Z,20.90
2023-03-18T23:16:09.781Z,20.80
2023-03-18T23:18:38.238Z,20.70
2023-03-18T23:21:06.918Z,20.70
2023-03-18T23:23:34.944Z,20.70
2023-03-18T23:26:03.216Z,20.60
2023-03-18T23:28:34.537Z,20.80
2023-03-18T23:31:09.294Z,20.90
2023-03-18T23:33:37.472Z,20.70
2023-03-18T23:36:06.081Z,21.00
2023-03-18T23:38:34.083Z,20.80
2023-03-18T23:41:02.146Z,20.80
2023-03-18T23:43:30.202Z,20.80
2023-03-18T23:45:58.283Z,20.60
2023-03-18T23:48:28.105Z,20.80
2023-03-18T23:50:56.243Z,20.70
2023-03-18T23:53:24.457Z,21.00
2023-03-18T23:55:52.457Z,20.40
2023-03-18T23:58:20.496Z,20.50
